Time;durP1;ratioP1;P1;durP2;ratioP2;P2;SDS_P1;SDS_P2;PMS_P1;PMS_P2;Temp;Humidity;BMP_temperature;BMP_pressure;BME280_temperature;BME280_humidity;BME280_pressure;Samples;Min_cycle;Max_cycle;Signal;HPM_P1;HPM_P2
2022/09/30 00:01:45;;;;;;;14.07;10.73;;;;;;;;;;4981221;28;20050;-68
2022/09/30 00:04:16;;;;;;;18.48;12.20;;;;;;;;;;4981467;28;20124;-68
2022/09/30 00:06:41;;;;;;;22.25;14.45;;;;;;;;;;4981447;28;20104;-68
2022/09/30 00:09:08;;;;;;;25.48;15.35;;;;;;;;;;4981250;28;20054;-68
2022/09/30 00:11:34;;;;;;;32.78;17.17;;;;;;;;;;4991942;28;20042;-68
2022/09/30 00:14:01;;;;;;;28.73;16.17;;;;;;;;;;4985953;28;20050;-68
2022/09/30 00:16:30;;;;;;;20.70;14.70;;;;;;;;;;4981477;28;20050;-68
2022/09/30 00:18:56;;;;;;;22.20;14.13;;;;;;;;;;4986405;28;20050;-68
2022/09/30 00:21:23;;;;;;;19.30;13.00;;;;;;;;;;4989003;28;20049;-68
2022/09/30 00:23:49;;;;;;;19.50;12.82;;;;;;;;;;4994589;28;20080;-68
2022/09/30 00:26:17;;;;;;;17.02;11.77;;;;;;;;;;4983633;28;20082;-68
2022/09/30 00:28:44;;;;;;;17.75;12.50;;;;;;;;;;4981225;28;20051;-68
2022/09/30 00:31:13;;;;;;;23.50;11.95;;;;;;;;;;4980413;28;20049;-68
2022/09/30 00:33:41;;;;;;;15.85;11.57;;;;;;;;;;4985172;28;20049;-68
2022/09/30 00:36:07;;;;;;;16.33;10.90;;;;;;;;;;4984441;28;20057;-68
2022/09/30 00:38:32;;;;;;;15.20;10.52;;;;;;;;;;4981393;28;20447;-68
2022/09/30 00:40:59;;;;;;;13.70;10.68;;;;;;;;;;4985966;28;20061;-68
2022/09/30 00:43:41;;;;;;;13.95;10.05;;;;;;;;;;4979896;28;20097;-68
2022/09/30 00:46:18;;;;;;;13.00;9.77;;;;;;;;;;4981214;28;20050;-68
2022/09/30 00:48:46;;;;;;;15.63;10.75;;;;;;;;;;4987506;28;20054;-68
2022/09/30 00:51:11;;;;;;;19.45;10.73;;;;;;;;;;4983256;28;20070;-68
2022/09/30 00:53:51;;;;;;;15.52;10.75;;;;;;;;;;4970863;28;20144;-68
2022/09/30 00:56:23;;;;;;;14.80;10.48;;;;;;;;;;4986790;28;20049;-68
2022/09/30 00:58:54;;;;;;;;;;;;;;;;;;4991089;28;20141;-68
2022/09/30 01:01:21;;;;;;;19.63;12.17;;;;;;;;;;4984270;28;19968;-68
2022/09/30 01:03:55;;;;;;;15.02;11.15;;;;;;;;;;4990896;28;20273;-68
2022/09/30 01:06:22;;;;;;;17.08;12.43;;;;;;;;;;4991113;28;20057;-68
2022/09/30 01:08:47;;;;;;;20.20;13.88;;;;;;;;;;4984654;28;20048;-68
2022/09/30 01:11:14;;;;;;;19.15;13.90;;;;;;;;;;4983912;28;20050;-68
2022/09/30 01:13:41;;;;;;;25.23;14.60;;;;;;;;;;4984657;28;21076;-68
2022/09/30 01:16:22;;;;;;;24.05;15.20;;;;;;;;;;4984299;28;20050;-68
2022/09/30 01:19:12;;;;;;;22.25;14.43;;;;;;;;;;4990312;28;20057;-68
2022/09/30 01:21:56;;;;;;;25.33;16.35;;;;;;;;;;4985141;28;20053;-68
2022/09/30 01:24:43;;;;;;;23.67;14.82;;;;;;;;;;4985828;28;20618;-68
2022/09/30 01:27:20;;;;;;;23.65;14.25;;;;;;;;;;4982580;28;20092;-68
2022/09/30 01:29:53;;;;;;;21.27;14.10;;;;;;;;;;4969230;28;20042;-68
2022/09/30 01:32:48;;;;;;;24.27;13.57;;;;;;;;;;4989717;28;20038;-68
2022/09/30 01:35:24;;;;;;;18.05;12.30;;;;;;;;;;4989085;28;20046;-69
2022/09/30 01:38:17;;;;;;;17.50;12.38;;;;;;;;;;4983356;28;20042;-69
2022/09/30 01:40:48;;;;;;;17.63;11.98;;;;;;;;;;4977474;28;20112;-68
2022/09/30 01:43:22;;;;;;;17.33;11.98;;;;;;;;;;4984355;28;20170;-68
2022/09/30 01:46:25;;;;;;;13.70;10.82;;;;;;;;;;4984213;28;20799;-68
2022/09/30 01:48:57;;;;;;;17.63;11.77;;;;;;;;;;4933935;28;20141;-68
2022/09/30 01:51:28;;;;;;;16.75;12.25;;;;;;;;;;5000154;28;20403;-68
2022/09/30 01:53:59;;;;;;;18.77;12.27;;;;;;;;;;4989097;28;20050;-68
2022/09/30 01:56:36;;;;;;;22.13;13.82;;;;;;;;;;4983354;28;20041;-68
2022/09/30 01:59:08;;;;;;;21.88;13.55;;;;;;;;;;4983693;28;20052;-68
2022/09/30 02:01:45;;;;;;;23.33;13.60;;;;;;;;;;4990494;28;20150;-68
2022/09/30 02:04:22;;;;;;;19.42;12.48;;;;;;;;;;4993509;28;20056;-68
2022/09/30 02:06:52;;;;;;;18.58;11.93;;;;;;;;;;4998030;28;20061;-68
2022/09/30 02:09:32;;;;;;;14.48;11.13;;;;;;;;;;4983229;28;20050;-68
2022/09/30 02:12:01;;;;;;;15.20;11.40;;;;;;;;;;4988529;28;20076;-68
2022/09/30 02:14:32;;;;;;;14.13;10.73;;;;;;;;;;4990803;28;20053;-68
2022/09/30 02:17:03;;;;;;;14.63;10.65;;;;;;;;;;4988178;28;20724;-68
2022/09/30 02:19:32;;;;;;;13.45;10.43;;;;;;;;;;4974323;28;20050;-68
2022/09/30 02:22:14;;;;;;;14.45;9.70;;;;;;;;;;4983325;28;20060;-68
2022/09/30 02:24:42;;;;;;;12.68;9.57;;;;;;;;;;4989938;28;20495;-68
2022/09/30 02:27:22;;;;;;;14.05;10.30;;;;;;;;;;4983433;28;20050;-68
2022/09/30 02:29:54;;;;;;;14.57;9.93;;;;;;;;;;4951455;28;20050;-68
2022/09/30 02:32:26;;;;;;;18.67;9.90;;;;;;;;;;4985149;28;20488;-68
2022/09/30 02:35:04;;;;;;;14.32;10.38;;;;;;;;;;4982673;28;20057;-68
2022/09/30 02:37:43;;;;;;;14.55;10.02;;;;;;;;;;4981893;28;21451;-68
2022/09/30 02:40:18;;;;;;;12.80;9.65;;;;;;;;;;4985782;28;20054;-68
2022/09/30 02:42:44;;;;;;;12.35;9.50;;;;;;;;;;4984912;28;20041;-68
2022/09/30 02:45:16;;;;;;;13.27;9.88;;;;;;;;;;4985004;28;20085;-68
2022/09/30 02:48:22;;;;;;;15.18;10.02;;;;;;;;;;4997066;28;20046;-68
2022/09/30 02:51:03;;;;;;;15.07;10.27;;;;;;;;;;4988604;28;20042;-67
2022/09/30 02:53:42;;;;;;;17.10;9.83;;;;;;;;;;4982772;28;20139;-67
2022/09/30 02:56:12;;;;;;;13.02;9.70;;;;;;;;;;4982509;28;20046;-67
2022/09/30 02:58:39;;;;;;;15.23;11.13;;;;;;;;;;4982257;28;20807;-67
2022/09/30 03:01:09;;;;;;;16.77;11.32;;;;;;;;;;4982537;28;20165;-67
2022/09/30 03:03:41;;;;;;;19.52;12.18;;;;;;;;;;4982055;28;20082;-67
2022/09/30 03:06:08;;;;;;;14.85;10.63;;;;;;;;;;4985547;28;20042;-68
2022/09/30 03:08:34;;;;;;;19.42;12.35;;;;;;;;;;4992524;28;20038;-67
2022/09/30 03:10:59;;;;;;;16.27;11.85;;;;;;;;;;4986868;28;20491;-67
2022/09/30 03:13:50;;;;;;;13.02;9.73;;;;;;;;;;4980636;28;20080;-67
2022/09/30 03:17:08;;;;;;;12.05;9.07;;;;;;;;;;4981766;28;20061;-67
2022/09/30 03:19:49;;;;;;;12.25;8.73;;;;;;;;;;4882563;29;20059;-68
2022/09/30 03:22:35;;;;;;;15.13;9.93;;;;;;;;;;4883850;29;20501;-68
2022/09/30 03:25:28;;;;;;;18.23;11.15;;;;;;;;;;4948834;28;20105;-68
2022/09/30 03:28:18;;;;;;;17.33;11.88;;;;;;;;;;4966227;28;20108;-67
2022/09/30 03:31:00;;;;;;;18.88;12.15;;;;;;;;;;4988359;28;20046;-68
2022/09/30 03:33:35;;;;;;;21.30;12.80;;;;;;;;;;4980609;28;20148;-68
2022/09/30 03:36:12;;;;;;;20.77;13.60;;;;;;;;;;4981639;28;20169;-68
2022/09/30 03:39:15;;;;;;;40.95;13.75;;;;;;;;;;4981783;28;20062;-68
2022/09/30 03:41:46;;;;;;;20.27;13.38;;;;;;;;;;4981032;28;20972;-68
2022/09/30 03:44:21;;;;;;;19.48;13.25;;;;;;;;;;4981761;28;20058;-69
2022/09/30 03:46:51;;;;;;;19.40;12.02;;;;;;;;;;4983716;28;20438;-68
2022/09/30 03:49:23;;;;;;;21.08;11.57;;;;;;;;;;4981340;28;20239;-68
2022/09/30 03:51:49;;;;;;;17.17;11.40;;;;;;;;;;4994557;28;20046;-67
2022/09/30 03:54:15;;;;;;;18.02;11.00;;;;;;;;;;4980870;28;20046;-69
2022/09/30 03:56:42;;;;;;;16.13;11.55;;;;;;;;;;4981189;28;20038;-70
2022/09/30 03:59:29;;;;;;;18.23;10.98;;;;;;;;;;4981406;28;20042;-70
2022/09/30 04:01:58;;;;;;;13.82;9.98;;;;;;;;;;4950468;28;20061;-69
2022/09/30 04:04:24;;;;;;;12.63;10.07;;;;;;;;;;4982584;28;20243;-70
2022/09/30 04:06:49;;;;;;;14.65;9.32;;;;;;;;;;4981347;28;20549;-70
2022/09/30 04:09:15;;;;;;;18.95;10.05;;;;;;;;;;4980484;28;20086;-70
2022/09/30 04:11:41;;;;;;;12.20;9.10;;;;;;;;;;4985721;28;20036;-70
2022/09/30 04:14:07;;;;;;;12.40;9.50;;;;;;;;;;4979280;28;20447;-70
2022/09/30 04:16:33;;;;;;;11.13;8.70;;;;;;;;;;4995130;28;20077;-70
2022/09/30 04:18:58;;;;;;;15.00;9.20;;;;;;;;;;4981190;28;20046;-70
2022/09/30 04:21:27;;;;;;;14.13;10.35;;;;;;;;;;4980926;28;20546;-70
2022/09/30 04:23:53;;;;;;;14.80;9.65;;;;;;;;;;4984629;28;20054;-70
2022/09/30 04:26:19;;;;;;;12.73;9.30;;;;;;;;;;4980962;28;20097;-70
2022/09/30 04:28:45;;;;;;;14.85;10.55;;;;;;;;;;4981433;28;20046;-71
2022/09/30 04:31:12;;;;;;;17.05;10.70;;;;;;;;;;4981782;28;20039;-70
2022/09/30 04:33:38;;;;;;;17.77;11.20;;;;;;;;;;4981184;28;20096;-70
2022/09/30 04:36:04;;;;;;;16.75;11.52;;;;;;;;;;4981136;28;20050;-71
2022/09/30 04:38:30;;;;;;;19.75;13.27;;;;;;;;;;4999336;28;20053;-71
2022/09/30 04:40:56;;;;;;;21.70;13.60;;;;;;;;;;4986473;28;20081;-70
2022/09/30 04:43:23;;;;;;;22.27;13.07;;;;;;;;;;4980788;28;20047;-71
2022/09/30 04:45:50;;;;;;;25.02;13.18;;;;;;;;;;4986433;28;20128;-70
2022/09/30 04:48:15;;;;;;;26.02;14.82;;;;;;;;;;4989399;28;20136;-70
2022/09/30 04:50:41;;;;;;;23.67;14.60;;;;;;;;;;4996233;28;20151;-70
2022/09/30 04:53:13;;;;;;;23.02;13.45;;;;;;;;;;4980994;28;20145;-70
2022/09/30 04:55:40;;;;;;;26.98;14.18;;;;;;;;;;4980908;28;20046;-67
2022/09/30 04:58:05;;;;;;;21.50;13.80;;;;;;;;;;4990614;28;20047;-68
2022/09/30 05:00:31;;;;;;;21.15;13.40;;;;;;;;;;4981719;28;20050;-71
2022/09/30 05:02:57;;;;;;;18.92;13.05;;;;;;;;;;4990986;28;20088;-72
2022/09/30 05:05:22;;;;;;;19.67;13.10;;;;;;;;;;4987516;28;20085;-71
2022/09/30 05:07:48;;;;;;;22.45;13.52;;;;;;;;;;4981080;28;20053;-71
2022/09/30 05:10:15;;;;;;;19.75;12.55;;;;;;;;;;4986345;28;21131;-71
2022/09/30 05:12:40;;;;;;;19.17;12.30;;;;;;;;;;4979204;28;20089;-71
2022/09/30 05:15:07;;;;;;;18.60;12.00;;;;;;;;;;4970149;28;20451;-72
2022/09/30 05:17:33;;;;;;;16.23;10.98;;;;;;;;;;4977529;28;20130;-71
2022/09/30 05:19:58;;;;;;;17.05;11.90;;;;;;;;;;4980223;28;20129;-72
2022/09/30 05:22:25;;;;;;;17.50;11.82;;;;;;;;;;4979195;28;20097;-72
2022/09/30 05:24:51;;;;;;;18.63;11.57;;;;;;;;;;4978072;28;20419;-71
2022/09/30 05:27:18;;;;;;;16.85;11.85;;;;;;;;;;4980059;28;20816;-72
2022/09/30 05:29:44;;;;;;;16.50;11.38;;;;;;;;;;4994895;28;20581;-72
2022/09/30 05:32:09;;;;;;;19.00;11.10;;;;;;;;;;4980950;28;20042;-72
2022/09/30 05:34:36;;;;;;;15.52;11.25;;;;;;;;;;4980561;28;20042;-72
2022/09/30 05:37:01;;;;;;;14.52;10.50;;;;;;;;;;4963784;28;20062;-72
2022/09/30 05:39:28;;;;;;;13.75;10.93;;;;;;;;;;4983477;28;20097;-72
2022/09/30 05:41:55;;;;;;;20.38;12.30;;;;;;;;;;4983705;28;20061;-72
2022/09/30 05:44:20;;;;;;;23.40;13.00;;;;;;;;;;4984563;28;20065;-72
2022/09/30 05:46:46;;;;;;;24.55;15.40;;;;;;;;;;4983877;28;20376;-72
2022/09/30 05:49:12;;;;;;;29.25;15.40;;;;;;;;;;4983351;28;20049;-72
2022/09/30 05:51:37;;;;;;;26.75;16.05;;;;;;;;;;4985882;28;20499;-72
2022/09/30 05:54:03;;;;;;;28.33;16.67;;;;;;;;;;4983343;28;20046;-72
2022/09/30 05:56:29;;;;;;;26.25;15.95;;;;;;;;;;4980406;28;20513;-72
2022/09/30 05:58:54;;;;;;;26.20;15.32;;;;;;;;;;4982168;28;20958;-72
2022/09/30 06:01:20;;;;;;;24.55;14.48;;;;;;;;;;4981991;28;20057;-72
2022/09/30 06:03:46;;;;;;;24.50;13.88;;;;;;;;;;4981892;28;20513;-72
2022/09/30 06:06:13;;;;;;;18.30;13.25;;;;;;;;;;4981483;28;20137;-72
2022/09/30 06:08:40;;;;;;;18.52;12.80;;;;;;;;;;4989196;28;20153;-72
2022/09/30 06:11:10;;;;;;;20.33;13.65;;;;;;;;;;4985038;28;20103;-72
2022/09/30 06:13:36;;;;;;;19.73;13.77;;;;;;;;;;4967393;28;20816;-72
2022/09/30 06:16:02;;;;;;;19.48;13.60;;;;;;;;;;4986487;28;20081;-72
2022/09/30 06:18:29;;;;;;;17.63;12.90;;;;;;;;;;4987917;28;20115;-72
2022/09/30 06:20:57;;;;;;;18.58;13.02;;;;;;;;;;4984721;28;20061;-73
2022/09/30 06:23:22;;;;;;;16.40;12.05;;;;;;;;;;4979687;28;20458;-73
2022/09/30 06:25:52;;;;;;;15.18;11.10;;;;;;;;;;4982109;28;20522;-72
2022/09/30 06:28:18;;;;;;;15.55;11.10;;;;;;;;;;4989795;28;20150;-71
2022/09/30 06:30:44;;;;;;;15.35;10.48;;;;;;;;;;4994081;28;20074;-71
2022/09/30 06:33:10;;;;;;;13.60;10.20;;;;;;;;;;4985842;28;20085;-71
2022/09/30 06:35:35;;;;;;;14.95;10.07;;;;;;;;;;4987667;28;20138;-71
2022/09/30 06:38:01;;;;;;;12.55;10.23;;;;;;;;;;4982713;28;20042;-71
2022/09/30 06:40:26;;;;;;;23.50;11.60;;;;;;;;;;4975852;28;20057;-71
2022/09/30 06:43:00;;;;;;;14.70;10.05;;;;;;;;;;4965620;28;20558;-71
2022/09/30 06:45:27;;;;;;;14.50;10.32;;;;;;;;;;4982400;28;20054;-72
2022/09/30 06:47:59;;;;;;;13.82;10.13;;;;;;;;;;4982585;28;20054;-71
2022/09/30 06:50:25;;;;;;;15.15;10.63;;;;;;;;;;4982069;28;20491;-71
2022/09/30 06:52:51;;;;;;;14.18;9.90;;;;;;;;;;4982032;28;20046;-72
2022/09/30 06:55:17;;;;;;;12.88;9.90;;;;;;;;;;4982686;28;20050;-70
2022/09/30 06:57:45;;;;;;;14.77;10.88;;;;;;;;;;4982563;28;20049;-72
2022/09/30 07:00:11;;;;;;;12.93;8.88;;;;;;;;;;4982559;28;20060;-71
2022/09/30 07:02:38;;;;;;;11.88;9.98;;;;;;;;;;4990046;28;20077;-70
2022/09/30 07:05:04;;;;;;;10.95;8.20;;;;;;;;;;4982155;28;20050;-71
2022/09/30 07:07:33;;;;;;;12.20;9.07;;;;;;;;;;4981629;28;20458;-70
2022/09/30 07:09:58;;;;;;;9.95;8.52;;;;;;;;;;4982578;28;20120;-71
2022/09/30 07:12:24;;;;;;;10.52;7.05;;;;;;;;;;4997057;28;20050;-71
2022/09/30 07:14:50;;;;;;;7.90;6.40;;;;;;;;;;4988122;28;20148;-71
2022/09/30 07:17:15;;;;;;;6.22;5.60;;;;;;;;;;4989342;28;20129;-72
2022/09/30 07:19:41;;;;;;;5.78;4.93;;;;;;;;;;4985819;28;20553;-69
2022/09/30 07:24:50;;;;;;;4.47;3.85;;;;;;;;;;4984855;28;20053;-71
2022/09/30 07:27:15;;;;;;;4.50;4.10;;;;;;;;;;4981550;28;20422;-68
2022/09/30 07:29:42;;;;;;;6.47;4.72;;;;;;;;;;4985450;28;21040;-71
2022/09/30 07:32:07;;;;;;;7.57;4.60;;;;;;;;;;4981766;28;20137;-71
2022/09/30 07:34:34;;;;;;;5.40;4.90;;;;;;;;;;4989434;28;20108;-71
2022/09/30 07:37:00;;;;;;;5.15;4.18;;;;;;;;;;4982159;28;20143;-72
2022/09/30 07:39:25;;;;;;;5.50;5.00;;;;;;;;;;4990417;28;20041;-72
2022/09/30 07:41:52;;;;;;;5.57;4.63;;;;;;;;;;4990154;28;20042;-72
2022/09/30 07:44:18;;;;;;;5.20;4.53;;;;;;;;;;4987966;28;20132;-71
2022/09/30 07:46:44;;;;;;;4.68;4.22;;;;;;;;;;4982004;28;20128;-71
2022/09/30 07:49:22;;;;;;;6.30;3.90;;;;;;;;;;4980641;28;20383;-71
2022/09/30 07:51:49;;;;;;;2.83;2.33;;;;;;;;;;4964719;28;20056;-71
2022/09/30 07:54:16;;;;;;;4.28;2.75;;;;;;;;;;4982246;28;20046;-72
2022/09/30 07:56:43;;;;;;;3.25;2.83;;;;;;;;;;4981933;28;20154;-71
2022/09/30 07:59:10;;;;;;;3.95;2.53;;;;;;;;;;4983909;28;20565;-71
2022/09/30 08:01:37;;;;;;;3.53;3.15;;;;;;;;;;4981346;28;20111;-71
2022/09/30 08:04:05;;;;;;;3.28;3.03;;;;;;;;;;4982494;28;20049;-71
2022/09/30 08:06:35;;;;;;;3.35;2.78;;;;;;;;;;4981594;28;20050;-71
2022/09/30 08:09:00;;;;;;;2.90;2.63;;;;;;;;;;4982175;28;20070;-72
2022/09/30 08:11:26;;;;;;;3.50;2.63;;;;;;;;;;4980617;28;20582;-73
2022/09/30 08:13:52;;;;;;;4.47;2.90;;;;;;;;;;4964924;28;20097;-71
2022/09/30 08:16:19;;;;;;;15.85;10.68;;;;;;;;;;4985299;28;20499;-72
2022/09/30 08:18:44;;;;;;;5.13;3.10;;;;;;;;;;4982254;28;20423;-73
2022/09/30 08:21:10;;;;;;;3.03;2.72;;;;;;;;;;4981025;28;20514;-72
2022/09/30 08:23:35;;;;;;;2.65;2.45;;;;;;;;;;4981348;28;20049;-71
2022/09/30 08:26:01;;;;;;;2.67;2.40;;;;;;;;;;4985235;28;20050;-71
2022/09/30 08:28:30;;;;;;;5.28;2.85;;;;;;;;;;4962011;28;20113;-71
2022/09/30 08:30:55;;;;;;;2.42;2.22;;;;;;;;;;4982292;28;20054;-72
2022/09/30 08:33:21;;;;;;;3.38;2.80;;;;;;;;;;4982272;28;20065;-72
2022/09/30 08:35:46;;;;;;;3.88;2.58;;;;;;;;;;4980811;28;20497;-73
2022/09/30 08:38:11;;;;;;;2.53;2.15;;;;;;;;;;4982420;28;20534;-72
2022/09/30 08:40:54;;;;;;;4.78;4.38;;;;;;;;;;4984205;28;20046;-71
2022/09/30 08:43:27;;;;;;;2.63;2.30;;;;;;;;;;4982467;28;20053;-72
2022/09/30 08:46:13;;;;;;;1.83;1.70;;;;;;;;;;4982787;28;20045;-71
2022/09/30 08:48:54;;;;;;;3.92;2.97;;;;;;;;;;4987077;28;20093;-71
2022/09/30 08:51:26;;;;;;;3.92;1.45;;;;;;;;;;4979309;28;20056;-71
2022/09/30 08:53:53;;;;;;;1.75;1.65;;;;;;;;;;4982668;28;20050;-71
2022/09/30 08:56:26;;;;;;;3.08;1.92;;;;;;;;;;4982508;28;20093;-71
2022/09/30 08:58:57;;;;;;;3.00;2.05;;;;;;;;;;4986670;28;20042;-72
2022/09/30 09:01:31;;;;;;;2.58;1.98;;;;;;;;;;4979160;28;20057;-71
2022/09/30 09:03:59;;;;;;;1.85;1.75;;;;;;;;;;4982453;28;20082;-70
2022/09/30 09:06:57;;;;;;;3.00;2.00;;;;;;;;;;4980076;28;20053;-71
2022/09/30 09:10:01;;;;;;;7.10;4.03;;;;;;;;;;4979996;28;20050;-72
2022/09/30 09:13:11;;;;;;;2.25;2.00;;;;;;;;;;4944601;28;20046;-72
2022/09/30 09:16:01;;;;;;;2.03;1.92;;;;;;;;;;4979204;28;20146;-71
2022/09/30 09:19:01;;;;;;;3.83;2.30;;;;;;;;;;4991396;28;20049;-72
2022/09/30 09:21:32;;;;;;;3.13;2.00;;;;;;;;;;4990956;28;20645;-71
2022/09/30 09:24:01;;;;;;;1.95;1.85;;;;;;;;;;4983436;28;20080;-71
2022/09/30 09:26:33;;;;;;;2.75;2.30;;;;;;;;;;4969382;28;20049;-70
2022/09/30 09:29:07;;;;;;;2.25;2.05;;;;;;;;;;4971496;28;20575;-71
2022/09/30 09:31:32;;;;;;;3.78;2.60;;;;;;;;;;4986458;28;20112;-70
2022/09/30 09:34:08;;;;;;;5.80;2.08;;;;;;;;;;4983908;28;20042;-70
2022/09/30 09:36:43;;;;;;;2.22;2.03;;;;;;;;;;4979728;28;20042;-70
2022/09/30 09:39:42;;;;;;;2.20;2.00;;;;;;;;;;4989650;28;20163;-73
2022/09/30 09:42:26;;;;;;;4.82;2.17;;;;;;;;;;4972722;28;20050;-71
2022/09/30 09:44:52;;;;;;;3.28;1.85;;;;;;;;;;4989622;28;20046;-70
2022/09/30 09:47:18;;;;;;;2.60;1.98;;;;;;;;;;4982930;28;20065;-71
2022/09/30 09:50:04;;;;;;;2.20;2.00;;;;;;;;;;4991745;28;20407;-70
2022/09/30 09:52:51;;;;;;;2.08;1.98;;;;;;;;;;4965059;28;20082;-69
2022/09/30 09:55:20;;;;;;;2.30;2.10;;;;;;;;;;4982437;28;20046;-69
2022/09/30 09:57:46;;;;;;;6.95;2.53;;;;;;;;;;4991230;28;20408;-70
2022/09/30 10:03:22;;;;;;;2.50;2.30;;;;;;;;;;4987230;28;20406;-70
2022/09/30 10:06:07;;;;;;;3.10;2.50;;;;;;;;;;4965403;28;20080;-70
2022/09/30 10:08:35;;;;;;;2.75;2.20;;;;;;;;;;4993948;28;20057;-71
2022/09/30 10:11:04;;;;;;;2.50;2.10;;;;;;;;;;4987679;28;20042;-71
2022/09/30 10:13:39;;;;;;;2.40;2.20;;;;;;;;;;4983359;28;20042;-70
2022/09/30 10:16:05;;;;;;;2.22;2.03;;;;;;;;;;4987095;28;20050;-69
2022/09/30 10:18:34;;;;;;;2.45;2.25;;;;;;;;;;4985367;28;20179;-69
2022/09/30 10:21:03;;;;;;;1.95;1.75;;;;;;;;;;4987845;28;20573;-70
2022/09/30 10:23:39;;;;;;;2.20;2.00;;;;;;;;;;4984848;28;20376;-70
2022/09/30 10:26:13;;;;;;;2.85;1.80;;;;;;;;;;4983241;28;20129;-70
2022/09/30 10:28:51;;;;;;;1.42;1.33;;;;;;;;;;4989741;28;20418;-71
2022/09/30 10:31:25;;;;;;;1.92;1.40;;;;;;;;;;4983009;28;20061;-67
2022/09/30 10:34:00;;;;;;;1.50;1.30;;;;;;;;;;4984298;28;20382;-68
2022/09/30 10:36:38;;;;;;;1.17;0.90;;;;;;;;;;4991485;28;20081;-67
2022/09/30 10:39:07;;;;;;;1.40;1.30;;;;;;;;;;4983197;28;20053;-70
2022/09/30 10:41:35;;;;;;;3.40;1.30;;;;;;;;;;4992807;28;20057;-71
2022/09/30 10:44:17;;;;;;;2.90;1.40;;;;;;;;;;4994263;28;20049;-71
2022/09/30 10:46:45;;;;;;;1.48;1.38;;;;;;;;;;4988960;28;20044;-71
2022/09/30 10:49:27;;;;;;;1.83;1.23;;;;;;;;;;4982831;28;20050;-71
2022/09/30 10:51:55;;;;;;;1.73;1.40;;;;;;;;;;4968004;28;20052;-71
2022/09/30 10:54:38;;;;;;;1.38;1.27;;;;;;;;;;4983349;28;20045;-71
2022/09/30 10:57:11;;;;;;;1.52;1.42;;;;;;;;;;4986352;28;20829;-70
2022/09/30 10:59:38;;;;;;;1.33;1.10;;;;;;;;;;4981971;28;20053;-71
2022/09/30 11:02:34;;;;;;;1.70;1.33;;;;;;;;;;4990538;28;20050;-71
2022/09/30 11:05:17;;;;;;;1.23;1.13;;;;;;;;;;4991219;28;20050;-71
2022/09/30 11:07:53;;;;;;;0.85;0.85;;;;;;;;;;4989393;28;20097;-71
2022/09/30 11:10:27;;;;;;;1.52;1.10;;;;;;;;;;4984539;28;20499;-70
2022/09/30 11:13:27;;;;;;;1.75;1.20;;;;;;;;;;4990811;28;20196;-70
2022/09/30 11:16:01;;;;;;;5.03;1.55;;;;;;;;;;4969429;28;20514;-71
2022/09/30 11:18:30;;;;;;;2.97;1.40;;;;;;;;;;4985988;28;20046;-70
2022/09/30 11:21:00;;;;;;;1.10;0.93;;;;;;;;;;4982220;28;20042;-71
2022/09/30 11:23:25;;;;;;;1.92;1.52;;;;;;;;;;4989034;28;20160;-71
2022/09/30 11:26:26;;;;;;;1.63;1.40;;;;;;;;;;4994712;28;20136;-70
2022/09/30 11:29:04;;;;;;;4.00;1.60;;;;;;;;;;4969364;28;20104;-70
2022/09/30 11:31:54;;;;;;;3.17;1.92;;;;;;;;;;4982361;28;20636;-71
2022/09/30 11:34:37;;;;;;;1.92;1.33;;;;;;;;;;4951806;28;20502;-70
2022/09/30 11:37:30;;;;;;;1.23;1.13;;;;;;;;;;4991103;28;20092;-69
2022/09/30 11:40:04;;;;;;;5.88;1.42;;;;;;;;;;4975032;28;20045;-70
2022/09/30 11:42:45;;;;;;;1.40;1.30;;;;;;;;;;4983856;28;20077;-71
2022/09/30 11:45:33;;;;;;;2.50;1.63;;;;;;;;;;4984730;28;20061;-67
2022/09/30 11:48:14;;;;;;;1.70;1.60;;;;;;;;;;4971975;28;20050;-68
2022/09/30 11:51:05;;;;;;;1.88;1.60;;;;;;;;;;4980865;28;20161;-68
2022/09/30 11:53:45;;;;;;;2.05;1.70;;;;;;;;;;4981097;28;20042;-69
2022/09/30 11:56:19;;;;;;;2.85;1.52;;;;;;;;;;4983587;28;20128;-68
2022/09/30 11:58:49;;;;;;;2.85;1.50;;;;;;;;;;4981721;28;20039;-69
2022/09/30 12:01:20;;;;;;;4.68;1.58;;;;;;;;;;4984898;28;20521;-68
2022/09/30 12:03:54;;;;;;;3.00;1.88;;;;;;;;;;4981682;28;20073;-70
2022/09/30 12:06:25;;;;;;;4.28;1.50;;;;;;;;;;4983008;28;20454;-69
2022/09/30 12:09:15;;;;;;;1.55;1.38;;;;;;;;;;4980521;28;21196;-69
2022/09/30 12:11:48;;;;;;;1.55;1.20;;;;;;;;;;4980199;28;20050;-68
2022/09/30 12:14:26;;;;;;;2.70;1.58;;;;;;;;;;4981965;28;20135;-68
2022/09/30 12:16:55;;;;;;;1.40;1.30;;;;;;;;;;4980347;28;20050;-68
2022/09/30 12:19:29;;;;;;;3.25;1.60;;;;;;;;;;4979923;28;20046;-68
2022/09/30 12:22:04;;;;;;;1.50;1.40;;;;;;;;;;4986456;28;20104;-68
2022/09/30 12:24:38;;;;;;;1.40;1.30;;;;;;;;;;4985311;28;20133;-68
2022/09/30 12:27:12;;;;;;;1.73;1.58;;;;;;;;;;4987255;28;20056;-68
2022/09/30 12:33:04;;;;;;;2.08;1.60;;;;;;;;;;4984545;28;20124;-67
2022/09/30 12:35:42;;;;;;;1.48;1.30;;;;;;;;;;4992080;28;20061;-68
2022/09/30 12:38:32;;;;;;;3.80;1.60;;;;;;;;;;4980850;28;20065;-69
2022/09/30 12:41:39;;;;;;;2.42;1.60;;;;;;;;;;4986013;28;20078;-70
2022/09/30 12:44:17;;;;;;;1.50;1.40;;;;;;;;;;4976920;28;20053;-67
2022/09/30 12:47:12;;;;;;;2.97;1.80;;;;;;;;;;4988558;28;20046;-68
2022/09/30 12:49:40;;;;;;;1.90;1.70;;;;;;;;;;4984040;28;20054;-68
2022/09/30 12:52:16;;;;;;;2.63;1.83;;;;;;;;;;4988510;28;20043;-71
2022/09/30 12:54:51;;;;;;;1.85;1.75;;;;;;;;;;4987310;28;20050;-68
2022/09/30 12:57:25;;;;;;;2.22;1.80;;;;;;;;;;4988745;28;20394;-68
2022/09/30 12:59:55;;;;;;;1.75;1.65;;;;;;;;;;4991248;28;20050;-68
2022/09/30 13:02:42;;;;;;;2.60;2.40;;;;;;;;;;4972072;28;20046;-68
2022/09/30 13:05:26;;;;;;;1.88;1.77;;;;;;;;;;4970353;28;20129;-68
2022/09/30 13:08:03;;;;;;;2.40;2.20;;;;;;;;;;4938392;28;20891;-68
2022/09/30 13:10:43;;;;;;;2.35;1.92;;;;;;;;;;4985385;28;20510;-69
2022/09/30 13:13:11;;;;;;;2.08;1.90;;;;;;;;;;4983459;28;20065;-69
2022/09/30 13:15:41;;;;;;;2.70;1.98;;;;;;;;;;4985716;28;20403;-69
2022/09/30 13:18:18;;;;;;;2.67;1.73;;;;;;;;;;4984335;28;20046;-68
2022/09/30 13:21:09;;;;;;;3.38;1.70;;;;;;;;;;4985863;28;20069;-69
2022/09/30 13:23:54;;;;;;;2.45;1.80;;;;;;;;;;4987439;28;21362;-69
2022/09/30 13:26:31;;;;;;;2.28;1.80;;;;;;;;;;4987078;28;20066;-69
2022/09/30 13:29:17;;;;;;;1.80;1.70;;;;;;;;;;4989296;28;20044;-69
2022/09/30 13:31:49;;;;;;;6.45;1.83;;;;;;;;;;4969586;28;20499;-69
2022/09/30 13:34:29;;;;;;;2.30;2.05;;;;;;;;;;4984130;28;20120;-69
2022/09/30 13:36:58;;;;;;;2.55;2.10;;;;;;;;;;4982443;28;20050;-68
2022/09/30 13:39:24;;;;;;;2.20;2.00;;;;;;;;;;4970725;28;20148;-68
2022/09/30 13:41:59;;;;;;;12.82;6.40;;;;;;;;;;4993884;28;20175;-69
2022/09/30 13:44:31;;;;;;;2.75;2.28;;;;;;;;;;4986990;28;20050;-69
2022/09/30 13:46:59;;;;;;;;;;;;;;;;;;4982964;28;20045;-68
2022/09/30 13:49:33;;;;;;;1.90;1.80;;;;;;;;;;4982079;28;19929;-69
2022/09/30 13:52:00;;;;;;;2.10;2.00;;;;;;;;;;4982268;28;20057;-68
2022/09/30 13:54:34;;;;;;;5.65;2.05;;;;;;;;;;4983625;28;20146;-69
2022/09/30 13:57:01;;;;;;;1.83;1.73;;;;;;;;;;4983466;28;20141;-68
2022/09/30 13:59:44;;;;;;;2.20;2.00;;;;;;;;;;4982124;28;20138;-68
2022/09/30 14:02:25;;;;;;;2.20;2.05;;;;;;;;;;4985794;28;20054;-68
2022/09/30 14:05:25;;;;;;;2.25;2.05;;;;;;;;;;4991713;28;20056;-69
2022/09/30 14:08:32;;;;;;;2.13;1.52;;;;;;;;;;4965951;28;20042;-69
2022/09/30 14:10:58;;;;;;;5.15;1.90;;;;;;;;;;4967929;28;20124;-69
2022/09/30 14:13:41;;;;;;;1.88;1.75;;;;;;;;;;4982771;28;20477;-68
2022/09/30 14:16:17;;;;;;;2.72;1.63;;;;;;;;;;4983175;28;20065;-69
2022/09/30 14:19:01;;;;;;;1.67;1.58;;;;;;;;;;4983133;28;20042;-68
2022/09/30 14:21:36;;;;;;;2.00;1.90;;;;;;;;;;4981908;28;20043;-70
2022/09/30 14:24:09;;;;;;;2.08;1.98;;;;;;;;;;4986280;28;20113;-68
2022/09/30 14:26:58;;;;;;;2.00;1.90;;;;;;;;;;4983473;28;20446;-68
2022/09/30 14:29:45;;;;;;;2.17;1.65;;;;;;;;;;4985107;28;20050;-69
2022/09/30 14:32:13;;;;;;;2.90;2.00;;;;;;;;;;4996547;28;20053;-69
2022/09/30 14:34:40;;;;;;;2.35;1.80;;;;;;;;;;4987845;28;20229;-69
2022/09/30 14:37:13;;;;;;;2.33;2.13;;;;;;;;;;4982503;28;20860;-69
2022/09/30 14:39:39;;;;;;;3.78;2.42;;;;;;;;;;4985515;28;20511;-69
2022/09/30 14:42:05;;;;;;;2.85;2.08;;;;;;;;;;4994069;28;20045;-69
2022/09/30 14:44:35;;;;;;;2.70;2.50;;;;;;;;;;4991837;28;20570;-68
2022/09/30 14:47:03;;;;;;;2.33;2.13;;;;;;;;;;4982270;28;20050;-67
2022/09/30 14:49:33;;;;;;;3.65;2.20;;;;;;;;;;4979705;28;20073;-68
2022/09/30 14:52:01;;;;;;;3.05;2.67;;;;;;;;;;4982174;28;20086;-69
2022/09/30 14:54:28;;;;;;;2.80;2.55;;;;;;;;;;4983513;28;20069;-69
2022/09/30 14:56:55;;;;;;;2.53;2.33;;;;;;;;;;4989249;28;20046;-68
2022/09/30 14:59:31;;;;;;;4.38;2.85;;;;;;;;;;4981678;28;20042;-68
2022/09/30 15:02:02;;;;;;;3.80;3.05;;;;;;;;;;4983557;28;20108;-68
2022/09/30 15:04:37;;;;;;;2.80;2.60;;;;;;;;;;4981721;28;20053;-69
2022/09/30 15:07:08;;;;;;;3.15;2.85;;;;;;;;;;4982404;28;20062;-68
2022/09/30 15:09:45;;;;;;;3.00;2.80;;;;;;;;;;4992344;28;20100;-68
2022/09/30 15:12:15;;;;;;;3.88;3.10;;;;;;;;;;4986282;28;20821;-69
2022/09/30 15:14:47;;;;;;;2.90;2.70;;;;;;;;;;4982464;28;20153;-69